< < Back
Terminal Aerodrome Forecast


Current Version              Previous Versions:   1  2  3  4  5  6  7  8  9  

Terminal Aerodrome Forecast

013
FTUS44 KOHX 261720
TAFBNA
TAF
KBNA 261720Z 2618/2718 23004KT P6SM SCT045 SCT080
     FM261900 22006KT P6SM VCTS SCT045CB BKN080
     FM270100 18003KT P6SM SCT100 SCT250=



Latest METAR

246
SAUS70 KWBC 270200
MTRBNA
METAR KBNA 270153Z 23004KT 10SM VCTS FEW055CB SCT110 BKN170 BKN250 29/23
A3001 RMK AO2 LTG DSNT S AND SW TSB37 SLP154 CONS LTGICCG
S-SW TS S-SW MOV N T02890233


USA.gov is the U.S. government's official web portal to all federal, state and local government web resources and services.